Anne Sibum — C4YC2 — position and weather

sailwx.info

Track history (hours):
 
Tides and Currents Weather Stations Pressure Air Temp Water Temp Dewpoint Dewpoint Depression Visibility Wind Speed Wind Dir Waves Ship Positions

Anne Sibum

Last reported at 2016-Aug-25 17:33 UTC. Time now 2016-Aug-25 18:26 UTC.
Position N 50°18' W 000°26'.

Length 151 m; draft 7.5 m.

Type: Ship (hazmat cat A). MMSI: 209322000.

Date/timePositionNaut miles runAvg speedWind from/ knotsBaromVisibWave heightAir tempDewpointWater temp
2016-Aug-25 17:33N 50°18' W 000°26'1815.1
2016-Aug-25 16:22N 50°15' W 000°54'1316.5
2016-Aug-25 15:33N 50°13' W 001°14'1716.7
2016-Aug-25 14:33N 50°15' W 001°40'1817.8
2016-Aug-25 13:33N 50°12' W 002°08'1817.8
2016-Aug-25 12:34N 50°10' W 002°35'1717.1
2016-Aug-25 11:33N 50°07' W 003°02'1716.7
2016-Aug-25 10:33N 50°05' W 003°28'1716.5
2016-Aug-25 09:33N 50°02' W 003°53'1616.2
2016-Aug-25 08:33N 49°60' W 004°18'1616.0
2016-Aug-25 07:33N 49°57' W 004°42'1615.7
2016-Aug-25 06:33N 49°55' W 005°06'3215.6
2016-Aug-25 04:31N 49°55' W 005°56'3215.7
2016-Aug-25 02:29N 50°27' W 006°01'1816.9
2016-Aug-25 01:25N 50°45' W 006°01'1416.5
2016-Aug-25 00:33N 50°59' W 006°00'1616.1
2016-Aug-24 23:33N 51°15' W 005°60'1615.8
2016-Aug-24 22:31N 51°32' W 005°59'1515.8
2016-Aug-24 21:33N 51°47' W 005°57'1717.1
2016-Aug-24 20:33N 52°03' W 005°52'10817.8
2016-Aug-24 14:30N 53°50' W 005°27'1516.1
2016-Aug-24 13:33N 54°05' W 005°22'1716.8
2016-Aug-24 12:33N 54°22' W 005°19'1818.0
2016-Aug-24 11:33N 54°39' W 005°26'1313.4
2016-Aug-24 10:33N 54°41' W 005°49'4 1.2
2016-Aug-24 07:28N 54°38' W 005°53'0 0.0
2016-Aug-24 04:27N 54°38' W 005°53'0 0.0
2016-Aug-24 03:32N 54°38' W 005°53'0 0.0
2016-Aug-24 01:31N 54°38' W 005°53'0 0.0
2016-Aug-24 00:31N 54°38' W 005°53'0 0.0
2016-Aug-23 20:20N 54°38' W 005°53'0 0.0
2016-Aug-23 18:31N 54°38' W 005°53'0 0.0
2016-Aug-23 11:16N 54°38' W 005°53'0 0.0
2016-Aug-23 10:22N 54°38' W 005°53'0 0.0
2016-Aug-23 09:09N 54°38' W 005°53'0 0.0
2016-Aug-23 08:09N 54°38' W 005°53'0 0.0
2016-Aug-23 07:26N 54°38' W 005°53'0 0.0
2016-Aug-23 06:26N 54°38' W 005°53'0 0.0
2016-Aug-23 05:32N 54°38' W 005°53'0 0.0
2016-Aug-23 04:13N 54°38' W 005°53'0 0.0
2016-Aug-23 03:31N 54°38' W 005°53'0 0.0
2016-Aug-23 01:12N 54°38' W 005°53'0 0.0
2016-Aug-23 00:28N 54°38' W 005°53'6 6.8
2016-Aug-22 23:33N 54°42' W 005°45'1110.6
2016-Aug-22 22:34N 54°40' W 005°27'1414.2
2016-Aug-22 21:33N 54°27' W 005°20'1615.4
2016-Aug-22 20:32N 54°12' W 005°27'1616.3
2016-Aug-22 19:34N 53°57' W 005°37'176 6.5
2016-Aug-21 16:27N 51°01' W 005°52'1617.2
2016-Aug-21 15:32N 50°46' W 005°53'1817.1
2016-Aug-21 14:27N 50°27' W 005°53'1516.8
2016-Aug-21 13:33N 50°12' W 005°53'4213.4
2016-Aug-21 10:23N 49°58' W 004°51'1415.9
2016-Aug-21 09:31N 50°01' W 004°30'1614.9
2016-Aug-21 08:26N 50°04' W 004°05'1213.2
2016-Aug-21 07:33N 50°06' W 003°47'1212.0
2016-Aug-21 06:34N 50°08' W 003°29'1312.9
2016-Aug-21 05:33N 50°10' W 003°09'1514.1
2016-Aug-21 04:32N 50°13' W 002°47'9313.0
2016-Aug-20 21:25N 50°29' W 000°24'910.8
2016-Aug-20 20:33N 50°31' W 000°09'1312.6
2016-Aug-20 19:33N 50°35' E 000°10'4514.1
2016-Aug-20 16:21N 50°56' E 001°12'1012.8
2016-Aug-20 15:33N 51°03' E 001°25'1111.3
2016-Aug-20 14:33N 51°09' E 001°39'1111.0
2016-Aug-20 13:33N 51°18' E 001°50'1212.4
2016-Aug-20 12:33N 51°28' E 002°01'1514.1
2016-Aug-20 11:28N 51°40' E 002°18'1716.3
2016-Aug-20 10:26N 51°52' E 002°36'3916.3
2016-Aug-20 08:04N 52°03' E 003°36'816.5
2016-Aug-20 07:34N 52°03' E 003°50'1313.1
2016-Aug-20 06:34N 51°57' E 004°10'1010.0
2016-Aug-20 05:34N 51°53' E 004°24'1 0.7
2016-Aug-20 04:33N 51°53' E 004°25'0 0.0
2016-Aug-20 03:32N 51°53' E 004°25'0 0.0
2016-Aug-20 02:32N 51°53' E 004°25'0 0.0
2016-Aug-20 01:31N 51°53' E 004°25'0 0.0
2016-Aug-20 00:33N 51°53' E 004°25'0 0.0
2016-Aug-19 23:33N 51°53' E 004°25'0 0.0
2016-Aug-19 22:32N 51°53' E 004°25'0 0.0
2016-Aug-19 21:29N 51°53' E 004°25'0 0.0
2016-Aug-19 20:32N 51°53' E 004°25'0 0.0
2016-Aug-19 19:31N 51°53' E 004°25'0 0.0
2016-Aug-19 18:31N 51°53' E 004°25'0 0.0
2016-Aug-19 17:33N 51°53' E 004°25'0 0.0
2016-Aug-19 16:34N 51°53' E 004°25'0 0.0
2016-Aug-19 15:32N 51°53' E 004°25'0 0.0
2016-Aug-19 14:32N 51°53' E 004°25'0 0.0
2016-Aug-19 13:32N 51°53' E 004°25'0 0.0
2016-Aug-19 12:31N 51°53' E 004°25'0 0.0
2016-Aug-19 11:31N 51°53' E 004°25'0 0.0
2016-Aug-19 10:33N 51°53' E 004°25'0 0.0
2016-Aug-19 09:33N 51°53' E 004°25'0 0.0
2016-Aug-19 08:33N 51°53' E 004°25'0 0.0
2016-Aug-19 07:32N 51°53' E 004°25'0 0.0
2016-Aug-19 06:31N 51°53' E 004°25'0 0.0
2016-Aug-19 05:33N 51°53' E 004°25'1 0.9
2016-Aug-19 04:33N 51°53' E 004°24'1 1.0
2016-Aug-19 03:32N 51°53' E 004°26'0 0.0
2016-Aug-19 02:31N 51°53' E 004°26'0 0.0
2016-Aug-19 01:31N 51°53' E 004°26'0 0.0
2016-Aug-19 00:33N 51°53' E 004°26'0 0.0
2016-Aug-18 23:33N 51°53' E 004°26'0 0.0
2016-Aug-18 22:32N 51°53' E 004°26'0 0.0
2016-Aug-18 21:32N 51°53' E 004°26'0 0.0
2016-Aug-18 20:32N 51°53' E 004°26'0 0.0
2016-Aug-18 19:31N 51°53' E 004°26'0 0.0
2016-Aug-18 18:33N 51°53' E 004°26'0 0.0
2016-Aug-18 17:32N 51°53' E 004°26'0 0.0
2016-Aug-18 16:33N 51°53' E 004°26'0 0.0
2016-Aug-18 15:33N 51°53' E 004°26'0 0.0
2016-Aug-18 14:33N 51°53' E 004°26'0 0.3
2016-Aug-18 13:31N 51°54' E 004°26'0 0.1
2016-Aug-18 12:31N 51°54' E 004°26'0 0.0
2016-Aug-18 11:31N 51°54' E 004°26'1 0.9
2016-Aug-18 10:33N 51°54' E 004°25'9 8.6
2016-Aug-18 09:33N 51°57' E 004°12'4 4.3
2016-Aug-18 08:33N 51°57' E 004°05'0 0.0
2016-Aug-18 07:33N 51°57' E 004°05'0 0.0
2016-Aug-18 06:32N 51°57' E 004°05'0 0.0
2016-Aug-18 05:32N 51°57' E 004°05'0 0.0
2016-Aug-18 04:33N 51°57' E 004°05'0 0.0
2016-Aug-18 03:33N 51°57' E 004°05'0 0.0
2016-Aug-18 02:33N 51°57' E 004°05'0 0.0
2016-Aug-18 01:33N 51°57' E 004°05'0 0.0
2016-Aug-18 00:33N 51°57' E 004°05'0 0.0
2016-Aug-17 23:33N 51°57' E 004°05'1 1.2
2016-Aug-17 22:32N 51°58' E 004°03'0 0.0
2016-Aug-17 21:29N 51°58' E 004°03'0 0.0
2016-Aug-17 20:31N 51°58' E 004°03'1 0.7
2016-Aug-17 19:33N 51°58' E 004°03'2 1.6
2016-Aug-17 18:30N 51°57' E 004°00'0 0.0
2016-Aug-17 17:27N 51°57' E 004°00'0 0.0
2016-Aug-17 16:30N 51°57' E 004°00'0 0.0
2016-Aug-17 15:32N 51°57' E 004°00'0 0.0
2016-Aug-17 14:31N 51°57' E 004°00'2 2.0
2016-Aug-17 13:33N 51°58' E 004°03'1 1.2
2016-Aug-17 12:31N 51°57' E 004°03'0 0.0
2016-Aug-17 11:33N 51°57' E 004°03'0 0.0
2016-Aug-17 10:33N 51°57' E 004°03'0 0.0
2016-Aug-17 09:29N 51°57' E 004°03'0 0.0
2016-Aug-17 08:32N 51°57' E 004°03'0 0.0
2016-Aug-17 07:31N 51°57' E 004°03'0 0.0
2016-Aug-17 06:33N 51°57' E 004°03'1 0.7
2016-Aug-17 05:33N 51°58' E 004°03'0 0.5
2016-Aug-17 04:33N 51°57' E 004°02'0 0.0
2016-Aug-17 03:32N 51°57' E 004°02'0 0.0
2016-Aug-17 02:32N 51°57' E 004°02'0 0.0
2016-Aug-17 01:31N 51°57' E 004°02'0 0.0
2016-Aug-17 00:34N 51°57' E 004°02'0 0.0
2016-Aug-16 23:33N 51°57' E 004°02'0 0.0
2016-Aug-16 22:33N 51°57' E 004°02'0 0.2
2016-Aug-16 21:33N 51°58' E 004°02'1010.2
2016-Aug-16 20:33N 51°54' E 004°18'4 4.3
2016-Aug-16 19:33N 51°53' E 004°25'0 0.0
2016-Aug-16 18:33N 51°53' E 004°25'0 0.0
2016-Aug-16 17:32N 51°53' E 004°25'0 0.0
2016-Aug-16 16:32N 51°53' E 004°25'0 0.0
2016-Aug-16 15:33N 51°53' E 004°25'0 0.0
2016-Aug-16 14:33N 51°53' E 004°25'0 0.0
2016-Aug-16 13:33N 51°53' E 004°25'0 0.0
2016-Aug-16 12:32N 51°53' E 004°25'0 0.0
2016-Aug-16 11:32N 51°53' E 004°25'0 0.0
2016-Aug-16 10:29N 51°53' E 004°25'0 0.0
2016-Aug-16 09:31N 51°53' E 004°25'0 0.0
2016-Aug-16 08:33N 51°53' E 004°25'2 2.0
2016-Aug-16 07:34N 51°54' E 004°22'3210.7
2016-Aug-16 04:33N 51°56' E 003°30'1413.5
2016-Aug-16 03:30N 51°52' E 003°08'1513.4
2016-Aug-16 02:23N 51°47' E 002°45'1212.9
2016-Aug-16 01:28N 51°40' E 002°30'1314.1
2016-Aug-16 00:33N 51°30' E 002°17'1414.4
2016-Aug-15 23:34N 51°17' E 002°07'1615.8
2016-Aug-15 22:33N 51°08' E 001°46'1717.2
2016-Aug-15 21:33N 50°55' E 001°28'1717.2
2016-Aug-15 20:34N 50°39' E 001°16'3517.2
2016-Aug-15 18:33N 50°24' E 000°27'1818.1
2016-Aug-15 17:34N 50°20' W 000°00'  
Track history (hours):
 
Tides and Currents Weather Stations Pressure Air Temp Water Temp Dewpoint Dewpoint Depression Visibility Wind Speed Wind Dir Waves Ship Positions

Anne Sibum

Last reported at 2016-Aug-25 17:33 UTC. Time now 2016-Aug-25 18:26 UTC.
Position N 50°18' W 000°26'.

Length 151 m; draft 7.5 m.

Type: Ship (hazmat cat A). MMSI: 209322000.

Date/timePositionNaut miles runAvg speedWind from/ knotsBaromVisibWave heightAir tempDewpointWater temp
2016-Aug-25 17:33N 50°18' W 000°26'1815.1
2016-Aug-25 16:22N 50°15' W 000°54'1316.5
2016-Aug-25 15:33N 50°13' W 001°14'1716.7
2016-Aug-25 14:33N 50°15' W 001°40'1817.8
2016-Aug-25 13:33N 50°12' W 002°08'1817.8
2016-Aug-25 12:34N 50°10' W 002°35'1717.1
2016-Aug-25 11:33N 50°07' W 003°02'1716.7
2016-Aug-25 10:33N 50°05' W 003°28'1716.5
2016-Aug-25 09:33N 50°02' W 003°53'1616.2
2016-Aug-25 08:33N 49°60' W 004°18'1616.0
2016-Aug-25 07:33N 49°57' W 004°42'1615.7
2016-Aug-25 06:33N 49°55' W 005°06'3215.6
2016-Aug-25 04:31N 49°55' W 005°56'3215.7
2016-Aug-25 02:29N 50°27' W 006°01'1816.9
2016-Aug-25 01:25N 50°45' W 006°01'1416.5
2016-Aug-25 00:33N 50°59' W 006°00'1616.1
2016-Aug-24 23:33N 51°15' W 005°60'1615.8
2016-Aug-24 22:31N 51°32' W 005°59'1515.8
2016-Aug-24 21:33N 51°47' W 005°57'1717.1
2016-Aug-24 20:33N 52°03' W 005°52'10817.8
2016-Aug-24 14:30N 53°50' W 005°27'1516.1
2016-Aug-24 13:33N 54°05' W 005°22'1716.8
2016-Aug-24 12:33N 54°22' W 005°19'1818.0
2016-Aug-24 11:33N 54°39' W 005°26'1313.4
2016-Aug-24 10:33N 54°41' W 005°49'4 1.2
2016-Aug-24 07:28N 54°38' W 005°53'0 0.0
2016-Aug-24 04:27N 54°38' W 005°53'0 0.0
2016-Aug-24 03:32N 54°38' W 005°53'0 0.0
2016-Aug-24 01:31N 54°38' W 005°53'0 0.0
2016-Aug-24 00:31N 54°38' W 005°53'0 0.0
2016-Aug-23 20:20N 54°38' W 005°53'0 0.0
2016-Aug-23 18:31N 54°38' W 005°53'0 0.0
2016-Aug-23 11:16N 54°38' W 005°53'0 0.0
2016-Aug-23 10:22N 54°38' W 005°53'0 0.0
2016-Aug-23 09:09N 54°38' W 005°53'0 0.0
2016-Aug-23 08:09N 54°38' W 005°53'0 0.0
2016-Aug-23 07:26N 54°38' W 005°53'0 0.0
2016-Aug-23 06:26N 54°38' W 005°53'0 0.0
2016-Aug-23 05:32N 54°38' W 005°53'0 0.0
2016-Aug-23 04:13N 54°38' W 005°53'0 0.0
2016-Aug-23 03:31N 54°38' W 005°53'0 0.0
2016-Aug-23 01:12N 54°38' W 005°53'0 0.0
2016-Aug-23 00:28N 54°38' W 005°53'6 6.8
2016-Aug-22 23:33N 54°42' W 005°45'1110.6
2016-Aug-22 22:34N 54°40' W 005°27'1414.2
2016-Aug-22 21:33N 54°27' W 005°20'1615.4
2016-Aug-22 20:32N 54°12' W 005°27'1616.3
2016-Aug-22 19:34N 53°57' W 005°37'176 6.5
2016-Aug-21 16:27N 51°01' W 005°52'1617.2
2016-Aug-21 15:32N 50°46' W 005°53'1817.1
2016-Aug-21 14:27N 50°27' W 005°53'1516.8
2016-Aug-21 13:33N 50°12' W 005°53'4213.4
2016-Aug-21 10:23N 49°58' W 004°51'1415.9
2016-Aug-21 09:31N 50°01' W 004°30'1614.9
2016-Aug-21 08:26N 50°04' W 004°05'1213.2
2016-Aug-21 07:33N 50°06' W 003°47'1212.0
2016-Aug-21 06:34N 50°08' W 003°29'1312.9
2016-Aug-21 05:33N 50°10' W 003°09'1514.1
2016-Aug-21 04:32N 50°13' W 002°47'9313.0
2016-Aug-20 21:25N 50°29' W 000°24'910.8
2016-Aug-20 20:33N 50°31' W 000°09'1312.6
2016-Aug-20 19:33N 50°35' E 000°10'4514.1
2016-Aug-20 16:21N 50°56' E 001°12'1012.8
2016-Aug-20 15:33N 51°03' E 001°25'1111.3
2016-Aug-20 14:33N 51°09' E 001°39'1111.0
2016-Aug-20 13:33N 51°18' E 001°50'1212.4
2016-Aug-20 12:33N 51°28' E 002°01'1514.1
2016-Aug-20 11:28N 51°40' E 002°18'1716.3
2016-Aug-20 10:26N 51°52' E 002°36'3916.3
2016-Aug-20 08:04N 52°03' E 003°36'816.5
2016-Aug-20 07:34N 52°03' E 003°50'1313.1
2016-Aug-20 06:34N 51°57' E 004°10'1010.0
2016-Aug-20 05:34N 51°53' E 004°24'1 0.7
2016-Aug-20 04:33N 51°53' E 004°25'0 0.0
2016-Aug-20 03:32N 51°53' E 004°25'0 0.0
2016-Aug-20 02:32N 51°53' E 004°25'0 0.0
2016-Aug-20 01:31N 51°53' E 004°25'0 0.0
2016-Aug-20 00:33N 51°53' E 004°25'0 0.0
2016-Aug-19 23:33N 51°53' E 004°25'0 0.0
2016-Aug-19 22:32N 51°53' E 004°25'0 0.0
2016-Aug-19 21:29N 51°53' E 004°25'0 0.0
2016-Aug-19 20:32N 51°53' E 004°25'0 0.0
2016-Aug-19 19:31N 51°53' E 004°25'0 0.0
2016-Aug-19 18:31N 51°53' E 004°25'0 0.0
2016-Aug-19 17:33N 51°53' E 004°25'0 0.0
2016-Aug-19 16:34N 51°53' E 004°25'0 0.0
2016-Aug-19 15:32N 51°53' E 004°25'0 0.0
2016-Aug-19 14:32N 51°53' E 004°25'0 0.0
2016-Aug-19 13:32N 51°53' E 004°25'0 0.0
2016-Aug-19 12:31N 51°53' E 004°25'0 0.0
2016-Aug-19 11:31N 51°53' E 004°25'0 0.0
2016-Aug-19 10:33N 51°53' E 004°25'0 0.0
2016-Aug-19 09:33N 51°53' E 004°25'0 0.0
2016-Aug-19 08:33N 51°53' E 004°25'0 0.0
2016-Aug-19 07:32N 51°53' E 004°25'0 0.0
2016-Aug-19 06:31N 51°53' E 004°25'0 0.0
2016-Aug-19 05:33N 51°53' E 004°25'1 0.9
2016-Aug-19 04:33N 51°53' E 004°24'1 1.0
2016-Aug-19 03:32N 51°53' E 004°26'0 0.0
2016-Aug-19 02:31N 51°53' E 004°26'0 0.0
2016-Aug-19 01:31N 51°53' E 004°26'0 0.0
2016-Aug-19 00:33N 51°53' E 004°26'0 0.0
2016-Aug-18 23:33N 51°53' E 004°26'0 0.0
2016-Aug-18 22:32N 51°53' E 004°26'0 0.0
2016-Aug-18 21:32N 51°53' E 004°26'0 0.0
2016-Aug-18 20:32N 51°53' E 004°26'0 0.0
2016-Aug-18 19:31N 51°53' E 004°26'0 0.0
2016-Aug-18 18:33N 51°53' E 004°26'0 0.0
2016-Aug-18 17:32N 51°53' E 004°26'0 0.0
2016-Aug-18 16:33N 51°53' E 004°26'0 0.0
2016-Aug-18 15:33N 51°53' E 004°26'0 0.0
2016-Aug-18 14:33N 51°53' E 004°26'0 0.3
2016-Aug-18 13:31N 51°54' E 004°26'0 0.1
2016-Aug-18 12:31N 51°54' E 004°26'0 0.0
2016-Aug-18 11:31N 51°54' E 004°26'1 0.9
2016-Aug-18 10:33N 51°54' E 004°25'9 8.6
2016-Aug-18 09:33N 51°57' E 004°12'4 4.3
2016-Aug-18 08:33N 51°57' E 004°05'0 0.0
2016-Aug-18 07:33N 51°57' E 004°05'0 0.0
2016-Aug-18 06:32N 51°57' E 004°05'0 0.0
2016-Aug-18 05:32N 51°57' E 004°05'0 0.0
2016-Aug-18 04:33N 51°57' E 004°05'0 0.0
2016-Aug-18 03:33N 51°57' E 004°05'0 0.0
2016-Aug-18 02:33N 51°57' E 004°05'0 0.0
2016-Aug-18 01:33N 51°57' E 004°05'0 0.0
2016-Aug-18 00:33N 51°57' E 004°05'0 0.0
2016-Aug-17 23:33N 51°57' E 004°05'1 1.2
2016-Aug-17 22:32N 51°58' E 004°03'0 0.0
2016-Aug-17 21:29N 51°58' E 004°03'0 0.0
2016-Aug-17 20:31N 51°58' E 004°03'1 0.7
2016-Aug-17 19:33N 51°58' E 004°03'2 1.6
2016-Aug-17 18:30N 51°57' E 004°00'0 0.0
2016-Aug-17 17:27N 51°57' E 004°00'0 0.0
2016-Aug-17 16:30N 51°57' E 004°00'0 0.0
2016-Aug-17 15:32N 51°57' E 004°00'0 0.0
2016-Aug-17 14:31N 51°57' E 004°00'2 2.0
2016-Aug-17 13:33N 51°58' E 004°03'1 1.2
2016-Aug-17 12:31N 51°57' E 004°03'0 0.0
2016-Aug-17 11:33N 51°57' E 004°03'0 0.0
2016-Aug-17 10:33N 51°57' E 004°03'0 0.0
2016-Aug-17 09:29N 51°57' E 004°03'0 0.0
2016-Aug-17 08:32N 51°57' E 004°03'0 0.0
2016-Aug-17 07:31N 51°57' E 004°03'0 0.0
2016-Aug-17 06:33N 51°57' E 004°03'1 0.7
2016-Aug-17 05:33N 51°58' E 004°03'0 0.5
2016-Aug-17 04:33N 51°57' E 004°02'0 0.0
2016-Aug-17 03:32N 51°57' E 004°02'0 0.0
2016-Aug-17 02:32N 51°57' E 004°02'0 0.0
2016-Aug-17 01:31N 51°57' E 004°02'0 0.0
2016-Aug-17 00:34N 51°57' E 004°02'0 0.0
2016-Aug-16 23:33N 51°57' E 004°02'0 0.0
2016-Aug-16 22:33N 51°57' E 004°02'0 0.2
2016-Aug-16 21:33N 51°58' E 004°02'1010.2
2016-Aug-16 20:33N 51°54' E 004°18'4 4.3
2016-Aug-16 19:33N 51°53' E 004°25'0 0.0
2016-Aug-16 18:33N 51°53' E 004°25'0 0.0
2016-Aug-16 17:32N 51°53' E 004°25'0 0.0
2016-Aug-16 16:32N 51°53' E 004°25'0 0.0
2016-Aug-16 15:33N 51°53' E 004°25'0 0.0
2016-Aug-16 14:33N 51°53' E 004°25'0 0.0
2016-Aug-16 13:33N 51°53' E 004°25'0 0.0
2016-Aug-16 12:32N 51°53' E 004°25'0 0.0
2016-Aug-16 11:32N 51°53' E 004°25'0 0.0
2016-Aug-16 10:29N 51°53' E 004°25'0 0.0
2016-Aug-16 09:31N 51°53' E 004°25'0 0.0
2016-Aug-16 08:33N 51°53' E 004°25'2 2.0
2016-Aug-16 07:34N 51°54' E 004°22'3210.7
2016-Aug-16 04:33N 51°56' E 003°30'1413.5
2016-Aug-16 03:30N 51°52' E 003°08'1513.4
2016-Aug-16 02:23N 51°47' E 002°45'1212.9
2016-Aug-16 01:28N 51°40' E 002°30'1314.1
2016-Aug-16 00:33N 51°30' E 002°17'1414.4
2016-Aug-15 23:34N 51°17' E 002°07'1615.8
2016-Aug-15 22:33N 51°08' E 001°46'1717.2
2016-Aug-15 21:33N 50°55' E 001°28'1717.2
2016-Aug-15 20:34N 50°39' E 001°16'3517.2
2016-Aug-15 18:33N 50°24' E 000°27'1818.1
2016-Aug-15 17:34N 50°20' W 000°00'  

Dump ship's entire track history